logo
Rechercher aéroport 
image banner adimage banner adimage banner ad
image banner ad

OPDB - Dalbandin

Situé à Dalbandin, Pakistan

ICAO - OPDB, IATA - DBA

Données fournies par Airmate  

Information générale

Coordonnées: N28°52'30" E64°24'17"
Élévation : 2777 feet MSL.
 
Voir autres Aéroports à Balochistan

Données opérationnelles

Special qualification required
Heure actuelle UTC:
Heure actuelle locale:
Météo à : - ( 0 km )
METAR: KASG 251748Z 19006KT 7SM BKN028 28/25 A2986
Voir NOTAMs / SUP AIP / TFR affectant cet aéroport [VIEW]
Fréquences de communication: [VIEW]

Pistes:

Identifiant RWYQFULongueur (ft)Largeur (ft)SurfaceLDA (ft)
13127°6640102UNK
31307°6640102UNK

Coordonnées de l'aéroport

Adresse: Dalbandin Pakistan

Vue satellite de OPDB